sensor_id;sensor_type;location;lat;lon;timestamp;pressure;altitude;pressure_sealevel;temperature;humidity
68141;BME280;54941;52.220;104.306;2022-12-18T00:01:38;96945.78;;;-16.95;81.22
68141;BME280;54941;52.220;104.306;2022-12-18T00:04:15;96941.59;;;-16.90;81.98
68141;BME280;54941;52.220;104.306;2022-12-18T00:06:44;96935.97;;;-16.97;80.32
68141;BME280;54941;52.220;104.306;2022-12-18T00:09:10;96936.16;;;-17.07;79.84
68141;BME280;54941;52.220;104.306;2022-12-18T00:11:38;96941.66;;;-16.93;80.28
68141;BME280;54941;52.220;104.306;2022-12-18T00:14:05;96936.22;;;-17.12;79.80
68141;BME280;54941;52.220;104.306;2022-12-18T00:16:31;96931.38;;;-17.18;80.69
68141;BME280;54941;52.220;104.306;2022-12-18T00:19:01;96938.50;;;-17.01;80.38
68141;BME280;54941;52.220;104.306;2022-12-18T00:21:28;96939.19;;;-16.93;79.46
68141;BME280;54941;52.220;104.306;2022-12-18T00:23:55;96931.22;;;-16.60;80.54
68141;BME280;54941;52.220;104.306;2022-12-18T00:26:23;96936.03;;;-17.00;78.94
68141;BME280;54941;52.220;104.306;2022-12-18T00:28:52;96935.75;;;-17.35;78.57
68141;BME280;54941;52.220;104.306;2022-12-18T00:31:20;96935.22;;;-17.52;77.94
68141;BME280;54941;52.220;104.306;2022-12-18T00:33:46;96940.72;;;-17.38;78.51
68141;BME280;54941;52.220;104.306;2022-12-18T00:36:14;96939.22;;;-17.47;78.50
68141;BME280;54941;52.220;104.306;2022-12-18T00:38:41;96947.31;;;-17.39;79.51
68141;BME280;54941;52.220;104.306;2022-12-18T00:41:09;96951.41;;;-17.38;79.23
68141;BME280;54941;52.220;104.306;2022-12-18T00:43:36;96951.63;;;-17.51;79.30
68141;BME280;54941;52.220;104.306;2022-12-18T00:46:04;96953.25;;;-17.53;79.29
68141;BME280;54941;52.220;104.306;2022-12-18T00:48:31;96950.22;;;-17.69;78.97
68141;BME280;54941;52.220;104.306;2022-12-18T00:50:58;96941.38;;;-17.80;78.78
68141;BME280;54941;52.220;104.306;2022-12-18T00:53:24;96954.63;;;-17.89;78.19
68141;BME280;54941;52.220;104.306;2022-12-18T00:55:51;96954.88;;;-18.09;77.56
68141;BME280;54941;52.220;104.306;2022-12-18T00:58:17;96952.44;;;-18.13;76.80
68141;BME280;54941;52.220;104.306;2022-12-18T01:00:43;96958.09;;;-18.05;77.67
68141;BME280;54941;52.220;104.306;2022-12-18T01:03:13;96950.63;;;-17.99;77.98
68141;BME280;54941;52.220;104.306;2022-12-18T01:05:40;96950.72;;;-18.04;78.12
68141;BME280;54941;52.220;104.306;2022-12-18T01:08:06;96951.16;;;-18.43;76.84
68141;BME280;54941;52.220;104.306;2022-12-18T01:10:32;96956.06;;;-18.40;77.03
68141;BME280;54941;52.220;104.306;2022-12-18T01:12:59;96958.50;;;-18.39;77.97
68141;BME280;54941;52.220;104.306;2022-12-18T01:15:25;96949.31;;;-18.23;78.29
68141;BME280;54941;52.220;104.306;2022-12-18T01:17:52;96950.69;;;-18.02;78.16
68141;BME280;54941;52.220;104.306;2022-12-18T01:20:20;96950.03;;;-18.15;76.76
68141;BME280;54941;52.220;104.306;2022-12-18T01:22:47;96949.22;;;-18.17;75.78
68141;BME280;54941;52.220;104.306;2022-12-18T01:25:13;96946.28;;;-18.46;74.93
68141;BME280;54941;52.220;104.306;2022-12-18T01:27:40;96948.03;;;-18.53;74.77
68141;BME280;54941;52.220;104.306;2022-12-18T01:30:07;96947.25;;;-18.58;75.29
68141;BME280;54941;52.220;104.306;2022-12-18T01:32:33;96956.13;;;-18.45;76.51
68141;BME280;54941;52.220;104.306;2022-12-18T01:35:00;96946.03;;;-18.23;76.44
68141;BME280;54941;52.220;104.306;2022-12-18T01:37:28;96937.34;;;-17.84;77.53
68141;BME280;54941;52.220;104.306;2022-12-18T01:39:54;96941.66;;;-18.02;75.68
68141;BME280;54941;52.220;104.306;2022-12-18T01:42:21;96947.00;;;-18.37;75.26
68141;BME280;54941;52.220;104.306;2022-12-18T01:45:00;96956.13;;;-18.46;74.44
68141;BME280;54941;52.220;104.306;2022-12-18T01:47:34;96946.16;;;-18.34;74.72
68141;BME280;54941;52.220;104.306;2022-12-18T01:50:04;96951.50;;;-18.00;75.24
68141;BME280;54941;52.220;104.306;2022-12-18T01:52:34;96945.72;;;-17.98;74.47
68141;BME280;54941;52.220;104.306;2022-12-18T01:55:03;96949.91;;;-18.06;74.11
68141;BME280;54941;52.220;104.306;2022-12-18T01:57:30;96948.94;;;-17.94;73.60
68141;BME280;54941;52.220;104.306;2022-12-18T02:00:01;96938.91;;;-17.79;74.22
68141;BME280;54941;52.220;104.306;2022-12-18T02:02:31;96943.44;;;-17.55;74.23
68141;BME280;54941;52.220;104.306;2022-12-18T02:04:57;96946.44;;;-17.36;72.90
68141;BME280;54941;52.220;104.306;2022-12-18T02:07:36;96949.47;;;-17.20;72.57
68141;BME280;54941;52.220;104.306;2022-12-18T02:10:07;96945.16;;;-17.57;72.03
68141;BME280;54941;52.220;104.306;2022-12-18T02:12:45;96939.22;;;-17.47;72.05
68141;BME280;54941;52.220;104.306;2022-12-18T02:15:17;96942.38;;;-17.40;72.71
68141;BME280;54941;52.220;104.306;2022-12-18T02:17:48;96947.31;;;-17.40;72.43
68141;BME280;54941;52.220;104.306;2022-12-18T02:20:23;96950.34;;;-17.23;72.37
68141;BME280;54941;52.220;104.306;2022-12-18T02:23:03;96951.00;;;-17.12;72.17
68141;BME280;54941;52.220;104.306;2022-12-18T02:28:16;96950.84;;;-17.03;71.22
68141;BME280;54941;52.220;104.306;2022-12-18T02:30:46;96952.53;;;-17.06;72.03
68141;BME280;54941;52.220;104.306;2022-12-18T02:33:14;96959.09;;;-17.05;72.47
68141;BME280;54941;52.220;104.306;2022-12-18T02:35:42;96954.66;;;-16.85;73.09
68141;BME280;54941;52.220;104.306;2022-12-18T02:38:10;96961.63;;;-16.62;72.26
68141;BME280;54941;52.220;104.306;2022-12-18T02:40:39;96954.25;;;-16.21;70.87
68141;BME280;54941;52.220;104.306;2022-12-18T02:43:10;96957.69;;;-15.87;69.83
68141;BME280;54941;52.220;104.306;2022-12-18T02:45:46;96945.53;;;-15.56;68.69
68141;BME280;54941;52.220;104.306;2022-12-18T02:48:13;96948.25;;;-15.32;68.00
68141;BME280;54941;52.220;104.306;2022-12-18T02:50:44;96954.06;;;-14.66;65.52
68141;BME280;54941;52.220;104.306;2022-12-18T02:53:18;96951.69;;;-14.09;63.37
68141;BME280;54941;52.220;104.306;2022-12-18T02:55:55;96955.13;;;-13.56;62.58
68141;BME280;54941;52.220;104.306;2022-12-18T02:58:30;96958.91;;;-13.16;61.01
68141;BME280;54941;52.220;104.306;2022-12-18T03:01:03;96951.69;;;-13.24;59.85
68141;BME280;54941;52.220;104.306;2022-12-18T03:03:37;96960.06;;;-12.75;59.03
68141;BME280;54941;52.220;104.306;2022-12-18T03:06:08;96950.84;;;-12.72;58.13
68141;BME280;54941;52.220;104.306;2022-12-18T03:08:38;96953.69;;;-12.58;58.32
68141;BME280;54941;52.220;104.306;2022-12-18T03:11:08;96957.16;;;-12.39;57.38
68141;BME280;54941;52.220;104.306;2022-12-18T03:13:37;96957.09;;;-12.37;57.92
68141;BME280;54941;52.220;104.306;2022-12-18T03:16:10;96954.16;;;-12.48;59.01
68141;BME280;54941;52.220;104.306;2022-12-18T03:18:40;96956.19;;;-12.59;59.02
68141;BME280;54941;52.220;104.306;2022-12-18T03:21:10;96948.09;;;-12.40;58.85
68141;BME280;54941;52.220;104.306;2022-12-18T03:23:42;96953.69;;;-12.58;59.60
68141;BME280;54941;52.220;104.306;2022-12-18T03:26:15;96948.16;;;-12.18;59.07
68141;BME280;54941;52.220;104.306;2022-12-18T03:28:46;96945.13;;;-12.49;59.97
68141;BME280;54941;52.220;104.306;2022-12-18T03:31:17;96937.81;;;-12.06;60.14
68141;BME280;54941;52.220;104.306;2022-12-18T03:33:48;96938.28;;;-11.96;58.88
68141;BME280;54941;52.220;104.306;2022-12-18T03:36:17;96932.22;;;-11.67;59.09
68141;BME280;54941;52.220;104.306;2022-12-18T03:38:45;96922.09;;;-11.83;59.28
68141;BME280;54941;52.220;104.306;2022-12-18T03:41:17;96929.66;;;-11.64;60.09
68141;BME280;54941;52.220;104.306;2022-12-18T03:43:50;96928.19;;;-11.92;59.46
68141;BME280;54941;52.220;104.306;2022-12-18T03:46:25;96930.47;;;-12.09;60.59
68141;BME280;54941;52.220;104.306;2022-12-18T03:48:58;96925.94;;;-12.21;60.62
68141;BME280;54941;52.220;104.306;2022-12-18T03:51:29;96924.69;;;-12.09;60.20
68141;BME280;54941;52.220;104.306;2022-12-18T03:54:02;96908.06;;;-12.07;60.02
68141;BME280;54941;52.220;104.306;2022-12-18T03:56:31;96917.69;;;-11.55;58.85
68141;BME280;54941;52.220;104.306;2022-12-18T03:59:03;96912.28;;;-12.09;59.77
68141;BME280;54941;52.220;104.306;2022-12-18T04:01:33;96915.03;;;-12.17;60.79
68141;BME280;54941;52.220;104.306;2022-12-18T04:04:01;96916.25;;;-12.28;61.76
68141;BME280;54941;52.220;104.306;2022-12-18T04:06:29;96908.94;;;-12.08;61.44
68141;BME280;54941;52.220;104.306;2022-12-18T04:08:57;96905.19;;;-11.97;62.07
68141;BME280;54941;52.220;104.306;2022-12-18T04:11:24;96909.31;;;-11.74;61.78
68141;BME280;54941;52.220;104.306;2022-12-18T04:13:52;96904.81;;;-11.64;61.30
68141;BME280;54941;52.220;104.306;2022-12-18T04:16:21;96903.16;;;-12.09;62.76
68141;BME280;54941;52.220;104.306;2022-12-18T04:18:49;96902.78;;;-11.98;63.34
68141;BME280;54941;52.220;104.306;2022-12-18T04:21:15;96895.28;;;-11.53;62.56
68141;BME280;54941;52.220;104.306;2022-12-18T04:23:41;96905.16;;;-11.73;63.45
68141;BME280;54941;52.220;104.306;2022-12-18T04:26:08;96892.03;;;-11.77;63.73
68141;BME280;54941;52.220;104.306;2022-12-18T04:28:34;96889.84;;;-11.84;65.08
68141;BME280;54941;52.220;104.306;2022-12-18T04:31:01;96878.94;;;-11.80;65.03
68141;BME280;54941;52.220;104.306;2022-12-18T04:33:27;96877.56;;;-11.67;65.62
68141;BME280;54941;52.220;104.306;2022-12-18T04:35:55;96875.69;;;-11.41;64.47
68141;BME280;54941;52.220;104.306;2022-12-18T04:38:21;96869.88;;;-11.40;64.51
68141;BME280;54941;52.220;104.306;2022-12-18T04:40:48;96871.34;;;-11.14;64.02
68141;BME280;54941;52.220;104.306;2022-12-18T04:43:14;96871.00;;;-11.26;64.70
68141;BME280;54941;52.220;104.306;2022-12-18T04:45:41;96856.22;;;-10.69;63.69
68141;BME280;54941;52.220;104.306;2022-12-18T04:48:07;96865.88;;;-10.81;62.36
68141;BME280;54941;52.220;104.306;2022-12-18T04:50:34;96851.31;;;-10.91;62.50
68141;BME280;54941;52.220;104.306;2022-12-18T04:53:02;96855.19;;;-10.83;62.53
68141;BME280;54941;52.220;104.306;2022-12-18T04:55:29;96851.25;;;-10.69;63.06
68141;BME280;54941;52.220;104.306;2022-12-18T04:57:55;96848.13;;;-10.54;63.30
68141;BME280;54941;52.220;104.306;2022-12-18T05:00:21;96848.91;;;-10.53;62.64
68141;BME280;54941;52.220;104.306;2022-12-18T05:02:48;96834.34;;;-10.42;62.94
68141;BME280;54941;52.220;104.306;2022-12-18T05:05:14;96829.72;;;-10.51;63.56
68141;BME280;54941;52.220;104.306;2022-12-18T05:07:41;96831.19;;;-10.10;62.61
68141;BME280;54941;52.220;104.306;2022-12-18T05:10:09;96823.88;;;-10.13;62.73
68141;BME280;54941;52.220;104.306;2022-12-18T05:12:35;96822.16;;;-9.94;62.18
68141;BME280;54941;52.220;104.306;2022-12-18T05:15:06;96824.72;;;-9.95;62.08
68141;BME280;54941;52.220;104.306;2022-12-18T05:17:32;96817.47;;;-9.82;62.33
68141;BME280;54941;52.220;104.306;2022-12-18T05:19:59;96812.72;;;-9.87;61.91
68141;BME280;54941;52.220;104.306;2022-12-18T05:22:25;96814.31;;;-9.86;62.13
68141;BME280;54941;52.220;104.306;2022-12-18T05:24:51;96813.88;;;-9.58;62.03
68141;BME280;54941;52.220;104.306;2022-12-18T05:27:19;96806.44;;;-9.77;62.95
68141;BME280;54941;52.220;104.306;2022-12-18T05:29:46;96803.75;;;-9.38;61.44
68141;BME280;54941;52.220;104.306;2022-12-18T05:32:12;96806.41;;;-9.94;62.97
68141;BME280;54941;52.220;104.306;2022-12-18T05:34:39;96802.28;;;-9.59;63.00
68141;BME280;54941;52.220;104.306;2022-12-18T05:37:05;96791.38;;;-9.05;62.29
68141;BME280;54941;52.220;104.306;2022-12-18T05:39:32;96789.53;;;-9.02;61.06
68141;BME280;54941;52.220;104.306;2022-12-18T05:41:58;96780.75;;;-9.79;62.01
68141;BME280;54941;52.220;104.306;2022-12-18T05:44:26;96786.81;;;-9.66;61.57
68141;BME280;54941;52.220;104.306;2022-12-18T05:46:52;96784.16;;;-10.16;64.01
68141;BME280;54941;52.220;104.306;2022-12-18T05:49:19;96778.97;;;-10.30;65.08
68141;BME280;54941;52.220;104.306;2022-12-18T05:51:45;96773.13;;;-9.93;64.30
68141;BME280;54941;52.220;104.306;2022-12-18T05:54:12;96778.38;;;-10.16;65.38
68141;BME280;54941;52.220;104.306;2022-12-18T05:56:38;96775.91;;;-10.16;66.30
68141;BME280;54941;52.220;104.306;2022-12-18T05:59:04;96762.91;;;-10.42;67.08
68141;BME280;54941;52.220;104.306;2022-12-18T06:01:32;96770.38;;;-10.60;67.56
68141;BME280;54941;52.220;104.306;2022-12-18T06:03:59;96759.97;;;-10.31;67.87
68141;BME280;54941;52.220;104.306;2022-12-18T06:06:26;96767.81;;;-10.40;68.54
68141;BME280;54941;52.220;104.306;2022-12-18T06:08:53;96766.13;;;-10.21;68.18
68141;BME280;54941;52.220;104.306;2022-12-18T06:11:22;96761.59;;;-10.13;67.20
68141;BME280;54941;52.220;104.306;2022-12-18T06:13:51;96760.19;;;-10.01;67.50
68141;BME280;54941;52.220;104.306;2022-12-18T06:16:19;96758.50;;;-10.01;67.08
68141;BME280;54941;52.220;104.306;2022-12-18T06:18:47;96759.13;;;-9.96;66.87
68141;BME280;54941;52.220;104.306;2022-12-18T06:21:14;96749.03;;;-10.11;67.36
68141;BME280;54941;52.220;104.306;2022-12-18T06:23:40;96758.00;;;-9.90;66.66
68141;BME280;54941;52.220;104.306;2022-12-18T06:26:07;96741.91;;;-10.36;67.70
68141;BME280;54941;52.220;104.306;2022-12-18T06:28:34;96749.22;;;-10.14;66.62
68141;BME280;54941;52.220;104.306;2022-12-18T06:31:02;96741.38;;;-10.24;66.99
68141;BME280;54941;52.220;104.306;2022-12-18T06:33:29;96744.16;;;-10.13;66.37
68141;BME280;54941;52.220;104.306;2022-12-18T06:36:00;96742.47;;;-9.95;65.66
68141;BME280;54941;52.220;104.306;2022-12-18T06:38:26;96739.91;;;-9.94;65.70
68141;BME280;54941;52.220;104.306;2022-12-18T06:40:53;96735.53;;;-9.71;65.34
68141;BME280;54941;52.220;104.306;2022-12-18T06:43:19;96733.63;;;-9.49;64.54
68141;BME280;54941;52.220;104.306;2022-12-18T06:45:46;96737.00;;;-9.33;63.54
68141;BME280;54941;52.220;104.306;2022-12-18T06:48:12;96725.84;;;-9.43;63.79
68141;BME280;54941;52.220;104.306;2022-12-18T06:50:42;96730.91;;;-9.79;64.27
68141;BME280;54941;52.220;104.306;2022-12-18T06:53:09;96726.34;;;-10.22;65.16
68141;BME280;54941;52.220;104.306;2022-12-18T06:55:37;96727.53;;;-9.95;65.49
68141;BME280;54941;52.220;104.306;2022-12-18T06:58:04;96725.50;;;-9.87;64.85
68141;BME280;54941;52.220;104.306;2022-12-18T07:00:31;96722.53;;;-9.95;65.26
68141;BME280;54941;52.220;104.306;2022-12-18T07:02:57;96720.91;;;-10.13;65.12
68141;BME280;54941;52.220;104.306;2022-12-18T07:05:23;96721.28;;;-10.21;65.04
68141;BME280;54941;52.220;104.306;2022-12-18T07:07:50;96725.53;;;-10.23;65.61
68141;BME280;54941;52.220;104.306;2022-12-18T07:10:18;96715.84;;;-10.12;65.36
68141;BME280;54941;52.220;104.306;2022-12-18T07:12:44;96714.41;;;-10.16;65.38
68141;BME280;54941;52.220;104.306;2022-12-18T07:15:11;96715.28;;;-10.17;65.46
68141;BME280;54941;52.220;104.306;2022-12-18T07:17:37;96714.00;;;-10.08;65.15
68141;BME280;54941;52.220;104.306;2022-12-18T07:20:04;96719.81;;;-10.25;65.32
68141;BME280;54941;52.220;104.306;2022-12-18T07:22:30;96716.66;;;-10.11;65.56
68141;BME280;54941;52.220;104.306;2022-12-18T07:24:57;96718.41;;;-10.13;65.86
68141;BME280;54941;52.220;104.306;2022-12-18T07:27:25;96715.69;;;-10.26;65.86
68141;BME280;54941;52.220;104.306;2022-12-18T07:29:51;96718.28;;;-10.27;66.79
68141;BME280;54941;52.220;104.306;2022-12-18T07:32:17;96710.19;;;-10.32;68.42
68141;BME280;54941;52.220;104.306;2022-12-18T07:34:44;96705.88;;;-10.65;69.44
68141;BME280;54941;52.220;104.306;2022-12-18T07:37:10;96703.94;;;-10.41;69.71
68141;BME280;54941;52.220;104.306;2022-12-18T07:39:37;96706.91;;;-10.52;69.49
68141;BME280;54941;52.220;104.306;2022-12-18T07:42:03;96697.25;;;-10.76;70.38
68141;BME280;54941;52.220;104.306;2022-12-18T07:44:31;96694.81;;;-10.78;70.51
68141;BME280;54941;52.220;104.306;2022-12-18T07:46:58;96696.59;;;-11.19;71.21
68141;BME280;54941;52.220;104.306;2022-12-18T07:49:24;96700.31;;;-11.27;71.59
68141;BME280;54941;52.220;104.306;2022-12-18T07:51:53;96701.81;;;-10.86;70.33
68141;BME280;54941;52.220;104.306;2022-12-18T07:54:19;96695.38;;;-10.90;70.16
68141;BME280;54941;52.220;104.306;2022-12-18T07:56:46;96697.25;;;-11.34;71.21
68141;BME280;54941;52.220;104.306;2022-12-18T07:59:12;96692.03;;;-11.48;71.85
68141;BME280;54941;52.220;104.306;2022-12-18T08:01:40;96691.63;;;-11.58;72.04
68141;BME280;54941;52.220;104.306;2022-12-18T08:04:06;96689.31;;;-11.62;72.24
68141;BME280;54941;52.220;104.306;2022-12-18T08:06:33;96687.75;;;-11.83;71.76
68141;BME280;54941;52.220;104.306;2022-12-18T08:08:59;96690.31;;;-12.27;72.12
68141;BME280;54941;52.220;104.306;2022-12-18T08:11:28;96685.41;;;-12.72;73.43
68141;BME280;54941;52.220;104.306;2022-12-18T08:13:55;96685.66;;;-12.79;73.54
68141;BME280;54941;52.220;104.306;2022-12-18T08:16:22;96681.91;;;-12.90;73.87
68141;BME280;54941;52.220;104.306;2022-12-18T08:18:51;96692.31;;;-12.80;74.74
68141;BME280;54941;52.220;104.306;2022-12-18T08:21:19;96683.63;;;-12.92;75.58
68141;BME280;54941;52.220;104.306;2022-12-18T08:23:46;96669.41;;;-12.87;75.54
68141;BME280;54941;52.220;104.306;2022-12-18T08:26:13;96664.22;;;-13.04;75.46
68141;BME280;54941;52.220;104.306;2022-12-18T08:28:40;96668.16;;;-12.98;77.24
68141;BME280;54941;52.220;104.306;2022-12-18T08:31:07;96664.97;;;-13.96;75.86
68141;BME280;54941;52.220;104.306;2022-12-18T08:33:34;96667.28;;;-14.16;77.09
68141;BME280;54941;52.220;104.306;2022-12-18T08:36:03;96670.81;;;-14.23;77.30
68141;BME280;54941;52.220;104.306;2022-12-18T08:38:30;96672.59;;;-14.27;78.92
68141;BME280;54941;52.220;104.306;2022-12-18T08:40:58;96673.75;;;-14.12;80.60
68141;BME280;54941;52.220;104.306;2022-12-18T08:43:25;96677.69;;;-14.07;80.44
68141;BME280;54941;52.220;104.306;2022-12-18T08:45:51;96677.13;;;-14.15;80.56
68141;BME280;54941;52.220;104.306;2022-12-18T08:48:18;96679.50;;;-14.37;79.31
68141;BME280;54941;52.220;104.306;2022-12-18T08:50:53;96678.72;;;-14.65;78.45
68141;BME280;54941;52.220;104.306;2022-12-18T08:53:25;96685.41;;;-14.68;79.05
68141;BME280;54941;52.220;104.306;2022-12-18T08:55:52;96680.59;;;-14.73;78.29
68141;BME280;54941;52.220;104.306;2022-12-18T08:58:18;96678.34;;;-15.08;79.58
68141;BME280;54941;52.220;104.306;2022-12-18T09:00:45;96669.41;;;-15.12;80.71
68141;BME280;54941;52.220;104.306;2022-12-18T09:03:12;96669.47;;;-14.86;80.58
68141;BME280;54941;52.220;104.306;2022-12-18T09:05:39;96664.53;;;-15.45;79.80
68141;BME280;54941;52.220;104.306;2022-12-18T09:08:05;96674.25;;;-15.69;80.08
68141;BME280;54941;52.220;104.306;2022-12-18T09:10:33;96671.13;;;-15.74;79.58
68141;BME280;54941;52.220;104.306;2022-12-18T09:13:00;96659.94;;;-15.57;81.12
68141;BME280;54941;52.220;104.306;2022-12-18T09:15:26;96663.31;;;-15.30;82.79
68141;BME280;54941;52.220;104.306;2022-12-18T09:17:53;96649.88;;;-15.21;83.60
68141;BME280;54941;52.220;104.306;2022-12-18T09:20:19;96653.47;;;-15.31;83.21
68141;BME280;54941;52.220;104.306;2022-12-18T09:22:45;96642.09;;;-15.97;81.92
68141;BME280;54941;52.220;104.306;2022-12-18T09:25:12;96641.53;;;-16.08;82.46
68141;BME280;54941;52.220;104.306;2022-12-18T09:27:40;96642.38;;;-16.09;82.60
68141;BME280;54941;52.220;104.306;2022-12-18T09:30:08;96638.38;;;-16.13;82.26
68141;BME280;54941;52.220;104.306;2022-12-18T09:32:34;96651.03;;;-15.93;81.81
68141;BME280;54941;52.220;104.306;2022-12-18T09:35:01;96652.06;;;-16.02;82.16
68141;BME280;54941;52.220;104.306;2022-12-18T09:37:27;96653.13;;;-15.79;83.12
68141;BME280;54941;52.220;104.306;2022-12-18T09:39:53;96661.53;;;-15.85;82.75
68141;BME280;54941;52.220;104.306;2022-12-18T09:42:21;96655.72;;;-15.84;82.29
68141;BME280;54941;52.220;104.306;2022-12-18T09:44:52;96656.53;;;-16.16;81.63
68141;BME280;54941;52.220;104.306;2022-12-18T09:47:21;96652.97;;;-16.06;82.05
68141;BME280;54941;52.220;104.306;2022-12-18T09:49:50;96647.59;;;-16.21;81.65
68141;BME280;54941;52.220;104.306;2022-12-18T09:52:23;96645.81;;;-16.15;82.45
68141;BME280;54941;52.220;104.306;2022-12-18T09:54:53;96649.41;;;-16.26;81.32
68141;BME280;54941;52.220;104.306;2022-12-18T09:57:23;96647.88;;;-16.32;81.23
68141;BME280;54941;52.220;104.306;2022-12-18T09:59:54;96638.09;;;-16.35;80.25
68141;BME280;54941;52.220;104.306;2022-12-18T10:02:23;96640.00;;;-16.12;81.45
68141;BME280;54941;52.220;104.306;2022-12-18T10:07:45;96641.94;;;-16.25;81.79
68141;BME280;54941;52.220;104.306;2022-12-18T10:10:19;96634.69;;;-16.31;82.76
68141;BME280;54941;52.220;104.306;2022-12-18T10:12:56;96638.16;;;-16.04;82.74
68141;BME280;54941;52.220;104.306;2022-12-18T10:15:31;96635.16;;;-16.17;83.04
68141;BME280;54941;52.220;104.306;2022-12-18T10:18:07;96622.16;;;-16.22;82.27
68141;BME280;54941;52.220;104.306;2022-12-18T10:20:43;96624.31;;;-16.10;81.52
68141;BME280;54941;52.220;104.306;2022-12-18T10:23:17;96620.53;;;-16.23;80.25
68141;BME280;54941;52.220;104.306;2022-12-18T10:25:53;96620.00;;;-16.34;80.54
68141;BME280;54941;52.220;104.306;2022-12-18T10:28:23;96615.34;;;-16.46;81.10
68141;BME280;54941;52.220;104.306;2022-12-18T10:30:52;96616.97;;;-16.45;81.18
68141;BME280;54941;52.220;104.306;2022-12-18T10:33:21;96615.91;;;-16.35;81.63
68141;BME280;54941;52.220;104.306;2022-12-18T10:35:48;96618.00;;;-16.21;81.56
68141;BME280;54941;52.220;104.306;2022-12-18T10:38:24;96607.75;;;-16.39;80.67
68141;BME280;54941;52.220;104.306;2022-12-18T10:40:53;96610.63;;;-16.21;80.87
68141;BME280;54941;52.220;104.306;2022-12-18T10:43:23;96600.63;;;-16.49;80.29
68141;BME280;54941;52.220;104.306;2022-12-18T10:46:12;96608.69;;;-16.76;79.72
68141;BME280;54941;52.220;104.306;2022-12-18T10:48:47;96614.44;;;-16.76;80.22
68141;BME280;54941;52.220;104.306;2022-12-18T10:51:20;96608.19;;;-16.91;79.00
68141;BME280;54941;52.220;104.306;2022-12-18T10:53:52;96598.47;;;-16.61;79.03
68141;BME280;54941;52.220;104.306;2022-12-18T10:56:20;96608.84;;;-16.49;79.84
68141;BME280;54941;52.220;104.306;2022-12-18T10:58:56;96602.94;;;-16.77;78.68
68141;BME280;54941;52.220;104.306;2022-12-18T11:01:25;96602.34;;;-16.85;78.45
68141;BME280;54941;52.220;104.306;2022-12-18T11:04:02;96600.03;;;-16.93;78.61
68141;BME280;54941;52.220;104.306;2022-12-18T11:06:33;96595.38;;;-17.05;78.88
68141;BME280;54941;52.220;104.306;2022-12-18T11:09:01;96585.47;;;-17.40;78.41
68141;BME280;54941;52.220;104.306;2022-12-18T11:11:28;96595.00;;;-17.25;77.71
68141;BME280;54941;52.220;104.306;2022-12-18T11:14:01;96592.81;;;-17.37;78.20
68141;BME280;54941;52.220;104.306;2022-12-18T11:16:33;96584.22;;;-17.56;77.97
68141;BME280;54941;52.220;104.306;2022-12-18T11:19:18;96590.59;;;-17.49;78.45
68141;BME280;54941;52.220;104.306;2022-12-18T11:21:46;96590.78;;;-17.18;78.78
68141;BME280;54941;52.220;104.306;2022-12-18T11:24:20;96594.59;;;-17.07;79.19
68141;BME280;54941;52.220;104.306;2022-12-18T11:26:48;96587.16;;;-17.04;78.04
68141;BME280;54941;52.220;104.306;2022-12-18T11:29:17;96586.09;;;-16.92;78.01
68141;BME280;54941;52.220;104.306;2022-12-18T11:31:46;96590.19;;;-17.29;77.51
68141;BME280;54941;52.220;104.306;2022-12-18T11:34:23;96589.59;;;-17.41;78.27
68141;BME280;54941;52.220;104.306;2022-12-18T11:36:51;96593.78;;;-17.84;77.04
68141;BME280;54941;52.220;104.306;2022-12-18T11:39:20;96593.09;;;-17.91;78.71
68141;BME280;54941;52.220;104.306;2022-12-18T11:41:53;96602.81;;;-17.45;80.31
68141;BME280;54941;52.220;104.306;2022-12-18T11:44:25;96601.47;;;-16.84;83.81
68141;BME280;54941;52.220;104.306;2022-12-18T11:46:59;96596.53;;;-16.50;83.92
68141;BME280;54941;52.220;104.306;2022-12-18T11:49:29;96595.63;;;-16.80;84.10
68141;BME280;54941;52.220;104.306;2022-12-18T11:52:01;96598.81;;;-17.50;80.33
68141;BME280;54941;52.220;104.306;2022-12-18T11:54:30;96588.16;;;-17.51;79.75
68141;BME280;54941;52.220;104.306;2022-12-18T11:57:03;96581.28;;;-17.73;78.54
68141;BME280;54941;52.220;104.306;2022-12-18T11:59:39;96581.44;;;-17.82;78.48
68141;BME280;54941;52.220;104.306;2022-12-18T12:02:21;96585.97;;;-18.04;77.23
68141;BME280;54941;52.220;104.306;2022-12-18T12:07:58;96581.03;;;-18.49;77.62
68141;BME280;54941;52.220;104.306;2022-12-18T12:10:35;96581.31;;;-18.18;79.06
68141;BME280;54941;52.220;104.306;2022-12-18T12:13:21;96579.72;;;-17.77;80.06
68141;BME280;54941;52.220;104.306;2022-12-18T12:15:57;96575.56;;;-17.74;79.92
68141;BME280;54941;52.220;104.306;2022-12-18T12:18:33;96571.63;;;-17.84;80.25
68141;BME280;54941;52.220;104.306;2022-12-18T12:21:08;96575.31;;;-18.05;78.57
68141;BME280;54941;52.220;104.306;2022-12-18T12:23:42;96572.72;;;-18.40;77.57
68141;BME280;54941;52.220;104.306;2022-12-18T12:26:18;96580.09;;;-18.42;77.13
68141;BME280;54941;52.220;104.306;2022-12-18T12:28:59;96584.06;;;-18.36;77.19
68141;BME280;54941;52.220;104.306;2022-12-18T12:31:36;96580.72;;;-18.30;76.63
68141;BME280;54941;52.220;104.306;2022-12-18T12:34:14;96577.16;;;-18.14;76.76
68141;BME280;54941;52.220;104.306;2022-12-18T12:36:53;96570.25;;;-17.96;77.36
68141;BME280;54941;52.220;104.306;2022-12-18T12:39:28;96566.09;;;-18.38;75.99
68141;BME280;54941;52.220;104.306;2022-12-18T12:41:56;96569.16;;;-18.73;75.94
68141;BME280;54941;52.220;104.306;2022-12-18T12:44:25;96565.69;;;-18.60;74.89
68141;BME280;54941;52.220;104.306;2022-12-18T12:46:57;96566.00;;;-18.78;74.96
68141;BME280;54941;52.220;104.306;2022-12-18T12:49:29;96572.72;;;-18.89;75.07